createdAt,value
2022-12-31T00:02:49.363Z,0.68
2022-12-31T00:07:54.778Z,1.13
2022-12-31T00:13:02.594Z,0.93
2022-12-31T00:18:08.083Z,0.70
2022-12-31T00:23:14.407Z,0.93
2022-12-31T00:28:22.538Z,2.15
2022-12-31T00:33:27.861Z,1.03
2022-12-31T00:38:33.157Z,1.90
2022-12-31T00:43:41.317Z,1.23
2022-12-31T00:48:46.950Z,1.13
2022-12-31T00:53:53.012Z,2.65
2022-12-31T00:59:01.666Z,1.57
2022-12-31T01:04:10.626Z,3.03
2022-12-31T01:09:17.817Z,2.35
2022-12-31T01:14:25.864Z,2.43
2022-12-31T01:19:32.451Z,2.35
2022-12-31T01:24:37.739Z,2.27
2022-12-31T01:29:45.609Z,2.10
2022-12-31T01:34:50.896Z,2.30
2022-12-31T01:39:56.193Z,1.47
2022-12-31T01:45:04.389Z,1.33
2022-12-31T01:50:15.563Z,1.10
2022-12-31T01:55:25.253Z,1.77
2022-12-31T02:00:34.057Z,0.85
2022-12-31T02:05:45.593Z,0.87
2022-12-31T02:10:50.945Z,0.77
2022-12-31T02:16:06.986Z,0.20
2022-12-31T02:21:39.915Z,0.27
2022-12-31T02:26:55.366Z,0.35
2022-12-31T02:32:05.585Z,0.20
2022-12-31T02:37:15.278Z,0.10
2022-12-31T02:42:20.525Z,0.10
2022-12-31T02:47:41.242Z,0.20
2022-12-31T02:52:54.055Z,0.57
2022-12-31T02:58:10.831Z,0.20
2022-12-31T03:03:19.093Z,0.40
2022-12-31T03:08:25.479Z,4.38
2022-12-31T03:13:30.792Z,0.20
2022-12-31T03:18:50.921Z,0.63
2022-12-31T03:24:08.712Z,0.20
2022-12-31T03:29:13.934Z,0.10
2022-12-31T03:34:21.791Z,1.40
2022-12-31T03:39:27.136Z,0.30
2022-12-31T03:44:32.341Z,1.33
2022-12-31T03:49:40.191Z,1.13
2022-12-31T03:54:45.561Z,0.60
2022-12-31T03:59:50.808Z,1.63
2022-12-31T04:04:58.702Z,0.22
2022-12-31T04:10:03.979Z,0.20
2022-12-31T04:15:11.561Z,0.37
2022-12-31T04:20:19.857Z,0.40
2022-12-31T04:25:25.066Z,0.20
2022-12-31T04:30:30.321Z,1.13
2022-12-31T04:35:38.136Z,0.30
2022-12-31T04:41:03.515Z,0.33
2022-12-31T04:46:09.330Z,0.30
2022-12-31T04:51:18.167Z,0.57
2022-12-31T04:56:23.553Z,0.40
2022-12-31T05:01:28.839Z,0.90
2022-12-31T05:06:36.767Z,0.70
2022-12-31T05:11:42.056Z,0.70
2022-12-31T05:16:47.526Z,0.80
2022-12-31T05:22:07.764Z,0.45
2022-12-31T05:27:12.972Z,0.47
2022-12-31T05:32:18.275Z,1.93
2022-12-31T05:37:26.246Z,1.35
2022-12-31T05:42:31.507Z,1.87
2022-12-31T05:47:36.809Z,0.60
2022-12-31T05:52:47.607Z,1.02
2022-12-31T05:57:53.049Z,0.43
2022-12-31T06:02:58.479Z,1.80
2022-12-31T06:08:07.215Z,0.70
2022-12-31T06:13:12.481Z,0.80
2022-12-31T06:18:17.751Z,5.97
2022-12-31T06:23:25.571Z,1.38
2022-12-31T06:28:30.863Z,5.03
2022-12-31T06:33:36.704Z,1.07
2022-12-31T06:38:46.231Z,3.35
2022-12-31T06:43:51.582Z,2.65
2022-12-31T06:48:56.847Z,1.17
2022-12-31T06:54:05.177Z,0.90
2022-12-31T06:59:26.030Z,2.60
2022-12-31T07:04:53.304Z,0.97
2022-12-31T07:10:10.129Z,1.17
2022-12-31T07:15:22.018Z,4.70
2022-12-31T07:20:28.104Z,3.53
2022-12-31T07:25:37.981Z,1.17
2022-12-31T07:30:50.193Z,3.07
2022-12-31T07:36:14.836Z,0.60
2022-12-31T07:41:40.660Z,0.63
2022-12-31T07:46:57.058Z,1.27
2022-12-31T07:52:03.374Z,0.80
2022-12-31T07:57:12.466Z,2.63
2022-12-31T08:02:33.215Z,2.30
2022-12-31T08:07:44.874Z,0.70
2022-12-31T08:13:03.773Z,2.13
2022-12-31T08:18:10.576Z,1.93
2022-12-31T08:23:24.836Z,1.07
2022-12-31T08:28:45.028Z,1.02
2022-12-31T08:34:00.681Z,1.67
2022-12-31T08:39:19.768Z,0.90
2022-12-31T08:44:34.047Z,4.60
2022-12-31T08:49:39.913Z,1.87
2022-12-31T08:54:45.777Z,2.20
2022-12-31T09:00:04.424Z,3.50
2022-12-31T09:05:19.071Z,3.47
2022-12-31T09:10:29.885Z,1.37
2022-12-31T09:15:44.091Z,2.75
2022-12-31T09:20:50.200Z,2.40
2022-12-31T09:26:07.551Z,1.20
2022-12-31T09:31:21.979Z,1.77
2022-12-31T09:36:34.729Z,2.63
2022-12-31T09:42:23.710Z,3.97
2022-12-31T09:48:01.599Z,2.50
2022-12-31T09:53:36.837Z,3.33
2022-12-31T09:58:50.763Z,2.40
2022-12-31T10:04:24.616Z,1.38
2022-12-31T10:10:07.767Z,1.77
2022-12-31T10:15:44.156Z,5.80
2022-12-31T10:21:00.671Z,2.53
2022-12-31T10:26:28.797Z,3.95
2022-12-31T10:31:41.935Z,2.07
2022-12-31T10:36:56.610Z,6.63
2022-12-31T10:42:26.607Z,2.67
2022-12-31T10:48:10.202Z,2.93
2022-12-31T10:53:44.580Z,4.47
2022-12-31T10:59:26.076Z,7.15
2022-12-31T11:05:06.557Z,3.00
2022-12-31T11:10:46.564Z,4.93
2022-12-31T11:16:20.432Z,5.38
2022-12-31T11:21:41.313Z,4.47
2022-12-31T11:27:05.434Z,3.10
2022-12-31T11:32:21.964Z,2.38
2022-12-31T11:37:35.688Z,1.67
2022-12-31T11:42:53.473Z,6.00
2022-12-31T11:48:29.836Z,2.13
2022-12-31T11:53:57.620Z,2.70
2022-12-31T11:59:15.730Z,4.15
2022-12-31T12:04:24.660Z,2.15
2022-12-31T12:09:31.828Z,2.30
2022-12-31T12:14:41.543Z,3.42
2022-12-31T12:19:50.001Z,3.30
2022-12-31T12:24:57.279Z,2.80
2022-12-31T12:30:14.286Z,3.22
2022-12-31T12:35:26.576Z,2.70
2022-12-31T12:40:34.346Z,5.23
2022-12-31T12:45:51.842Z,2.42
2022-12-31T12:50:58.239Z,3.92
2022-12-31T12:56:13.466Z,3.83
2022-12-31T13:01:29.931Z,3.95
2022-12-31T13:06:42.551Z,4.95
2022-12-31T13:12:07.317Z,2.03
2022-12-31T13:17:33.584Z,6.20
2022-12-31T13:22:44.984Z,3.25
2022-12-31T13:27:54.028Z,4.67
2022-12-31T13:33:06.332Z,1.95
2022-12-31T13:38:18.331Z,4.88
2022-12-31T13:43:30.383Z,4.07
2022-12-31T13:48:45.700Z,5.22
2022-12-31T13:53:56.364Z,2.28
2022-12-31T13:59:06.383Z,5.50
2022-12-31T14:04:18.464Z,6.65
2022-12-31T14:09:26.342Z,2.90
2022-12-31T14:14:43.619Z,3.20
2022-12-31T14:20:04.422Z,2.47
2022-12-31T14:25:21.377Z,3.75
2022-12-31T14:30:33.889Z,4.13
2022-12-31T14:35:55.001Z,5.28
2022-12-31T14:41:12.735Z,4.07
2022-12-31T14:46:29.879Z,4.43
2022-12-31T14:51:38.645Z,5.40
2022-12-31T14:56:46.013Z,5.00
2022-12-31T15:01:51.317Z,2.20
2022-12-31T15:07:09.294Z,3.22
2022-12-31T15:12:30.348Z,6.53
2022-12-31T15:17:46.545Z,2.37
2022-12-31T15:22:55.771Z,4.10
2022-12-31T15:28:03.215Z,2.80
2022-12-31T15:33:11.708Z,4.93
2022-12-31T15:38:34.733Z,3.70
2022-12-31T15:43:46.245Z,6.40
2022-12-31T15:49:03.667Z,2.67
2022-12-31T15:54:24.357Z,4.30
2022-12-31T15:59:29.843Z,4.47
2022-12-31T16:04:39.483Z,2.80
2022-12-31T16:09:52.441Z,2.80
2022-12-31T16:14:59.501Z,3.00
2022-12-31T16:20:22.842Z,5.93
2022-12-31T16:25:33.293Z,3.80
2022-12-31T16:30:39.082Z,3.03
2022-12-31T16:35:44.652Z,4.27
2022-12-31T16:41:10.664Z,3.45
2022-12-31T16:46:20.721Z,4.40
2022-12-31T16:51:30.150Z,3.63
2022-12-31T16:56:41.183Z,4.40
2022-12-31T17:01:46.917Z,6.13
2022-12-31T17:06:52.446Z,6.57
2022-12-31T17:12:01.522Z,3.95
2022-12-31T17:17:09.421Z,6.35
2022-12-31T17:22:32.982Z,5.90
2022-12-31T17:27:55.472Z,4.50
2022-12-31T17:33:03.373Z,4.17
2022-12-31T17:38:33.863Z,5.53
2022-12-31T17:43:42.708Z,5.97
2022-12-31T17:48:52.862Z,5.90
2022-12-31T17:53:58.161Z,7.13
2022-12-31T17:59:07.839Z,3.63
2022-12-31T18:04:15.029Z,5.67
2022-12-31T18:09:20.291Z,5.33
2022-12-31T18:14:28.152Z,4.72
2022-12-31T18:24:58.742Z,6.10
2022-12-31T18:30:08.607Z,4.13
2022-12-31T18:36:07.844Z,3.80
2022-12-31T18:40:46.939Z,3.67
2022-12-31T18:45:55.382Z,3.22
2022-12-31T18:51:00.672Z,5.27
2022-12-31T18:56:05.917Z,6.77
2022-12-31T19:01:27.643Z,4.72
2022-12-31T19:06:33.532Z,8.13
2022-12-31T19:11:39.084Z,5.90
2022-12-31T19:16:47.104Z,9.02
2022-12-31T19:21:52.434Z,7.20
2022-12-31T19:26:58.025Z,7.63
2022-12-31T19:32:06.159Z,10.23
2022-12-31T19:37:14.742Z,7.43
2022-12-31T19:42:20.100Z,7.07
2022-12-31T19:47:27.998Z,12.75
2022-12-31T19:52:33.241Z,6.50
2022-12-31T19:57:38.554Z,8.27
2022-12-31T20:02:48.052Z,4.78
2022-12-31T20:07:53.540Z,13.17
2022-12-31T20:12:58.809Z,11.60
2022-12-31T20:18:06.967Z,4.57
2022-12-31T20:23:12.214Z,11.73
2022-12-31T20:28:17.463Z,8.30
2022-12-31T20:33:25.771Z,7.55
2022-12-31T20:38:31.080Z,10.57
2022-12-31T20:43:37.650Z,7.93
2022-12-31T20:48:45.724Z,11.80
2022-12-31T20:53:52.825Z,11.93
2022-12-31T20:58:58.371Z,6.37
2022-12-31T21:04:07.435Z,10.13
2022-12-31T21:09:14.044Z,6.30
2022-12-31T21:14:19.475Z,8.97
2022-12-31T21:19:27.362Z,7.47
2022-12-31T21:24:32.955Z,7.37
2022-12-31T21:29:55.633Z,7.23
2022-12-31T21:35:40.755Z,7.00
2022-12-31T21:40:33.377Z,4.87
2022-12-31T21:45:38.678Z,8.07
2022-12-31T21:50:48.586Z,9.88
2022-12-31T21:56:07.060Z,9.33
2022-12-31T22:01:31.645Z,3.33
2022-12-31T22:06:39.750Z,7.72
2022-12-31T22:11:45.089Z,6.73
2022-12-31T22:16:50.363Z,6.63
2022-12-31T22:21:58.196Z,8.60
2022-12-31T22:27:29.173Z,10.63
2022-12-31T22:32:28.679Z,6.30
2022-12-31T22:37:56.271Z,11.50
2022-12-31T22:43:02.042Z,8.07
2022-12-31T22:48:07.958Z,7.80
2022-12-31T22:53:15.820Z,10.88
2022-12-31T22:58:22.457Z,13.90
2022-12-31T23:03:27.905Z,40.93
2022-12-31T23:08:35.829Z,72.85
2022-12-31T23:13:55.629Z,84.28
2022-12-31T23:19:14.392Z,93.87
2022-12-31T23:24:26.438Z,77.32
2022-12-31T23:29:32.583Z,60.97
2022-12-31T23:34:38.353Z,81.73
2022-12-31T23:39:46.202Z,74.53
2022-12-31T23:44:51.407Z,56.63
2022-12-31T23:49:56.773Z,46.27
2022-12-31T23:55:04.646Z,56.70
